createdAt,value
2018-09-21T00:00:50.447Z,8.8
2018-09-21T00:02:50.480Z,8.8
2018-09-21T00:04:49.810Z,8.5
2018-09-21T00:06:50.205Z,8.6
2018-09-21T00:08:50.184Z,8.2
2018-09-21T00:10:50.260Z,8.2
2018-09-21T00:12:50.220Z,8.9
2018-09-21T00:14:50.207Z,8.4
2018-09-21T00:16:50.359Z,8.3
2018-09-21T00:18:50.330Z,8.1
2018-09-21T00:20:50.382Z,8.1
2018-09-21T00:22:49.597Z,8.4
2018-09-21T00:24:49.532Z,8.3
2018-09-21T00:26:49.754Z,8.4
2018-09-21T00:28:49.795Z,8.7
2018-09-21T00:30:49.786Z,8.7
2018-09-21T00:32:49.749Z,8.6
2018-09-21T00:34:50.010Z,8.7
2018-09-21T00:36:50.142Z,8.8
2018-09-21T00:38:50.185Z,9.1
2018-09-21T00:40:50.146Z,9.1
2018-09-21T00:42:50.180Z,9.1
2018-09-21T00:44:50.178Z,9.0
2018-09-21T00:46:50.324Z,9.0
2018-09-21T00:48:50.413Z,8.7
2018-09-21T00:50:50.395Z,8.7
2018-09-21T00:52:50.431Z,9.3
2018-09-21T00:54:49.575Z,9.4
2018-09-21T00:56:49.752Z,8.9
2018-09-21T00:58:49.742Z,9.3
2018-09-21T01:00:49.755Z,9.3
2018-09-21T01:02:49.944Z,9.2
2018-09-21T01:04:50.173Z,9.3
2018-09-21T01:06:50.355Z,8.8
2018-09-21T01:08:50.379Z,9.6
2018-09-21T01:10:50.458Z,9.6
2018-09-21T01:12:50.523Z,9.4
2018-09-21T01:14:49.581Z,9.3
2018-09-21T01:16:49.801Z,8.7
2018-09-21T01:18:49.755Z,9.2
2018-09-21T01:20:49.837Z,9.2
2018-09-21T01:22:49.840Z,9.4
2018-09-21T01:24:49.803Z,9.2
2018-09-21T01:26:49.975Z,9.5
2018-09-21T01:28:49.992Z,9.5
2018-09-21T01:30:50.044Z,9.4
2018-09-21T01:32:50.162Z,9.1
2018-09-21T01:34:49.991Z,9.1
2018-09-21T01:36:50.142Z,9.4
2018-09-21T01:38:50.125Z,9.4
2018-09-21T01:40:50.222Z,9.4
2018-09-21T01:42:50.261Z,9.9
2018-09-21T01:44:50.427Z,9.7
2018-09-21T01:46:49.664Z,9.7
2018-09-21T01:48:49.741Z,9.7
2018-09-21T01:50:49.711Z,10.0
2018-09-21T01:52:49.875Z,10.0
2018-09-21T01:54:49.885Z,9.3
2018-09-21T01:56:50.055Z,9.4
2018-09-21T01:58:50.142Z,9.5
2018-09-21T02:00:50.129Z,10.1
2018-09-21T02:02:50.206Z,10.0
2018-09-21T02:04:50.483Z,9.8
2018-09-21T02:06:49.775Z,9.8
2018-09-21T02:08:49.815Z,9.9
2018-09-21T02:10:49.772Z,9.9
2018-09-21T02:12:49.725Z,10.3
2018-09-21T02:14:49.755Z,9.9
2018-09-21T02:16:49.879Z,9.9
2018-09-21T02:18:49.876Z,10.3
2018-09-21T02:20:50.057Z,10.5
2018-09-21T02:22:50.175Z,10.5
2018-09-21T02:24:50.191Z,10.5
2018-09-21T02:26:50.345Z,10.5
2018-09-21T02:28:50.241Z,11.1
2018-09-21T02:30:50.276Z,9.8
2018-09-21T02:32:50.308Z,9.8
2018-09-21T02:34:49.722Z,10.6
2018-09-21T02:36:49.862Z,10.6
2018-09-21T02:38:49.841Z,10.0
2018-09-21T02:40:49.849Z,10.4
2018-09-21T02:42:49.854Z,9.9
2018-09-21T02:44:49.848Z,10.4
2018-09-21T02:46:50.037Z,10.4
2018-09-21T02:48:50.307Z,10.8
2018-09-21T02:50:49.793Z,10.7
2018-09-21T02:52:49.806Z,10.9
2018-09-21T02:54:49.810Z,10.2
2018-09-21T02:56:49.961Z,10.2
2018-09-21T02:58:50.156Z,9.9
2018-09-21T03:00:50.630Z,10.4
2018-09-21T03:02:49.937Z,11.1
2018-09-21T03:04:50.337Z,11.1
2018-09-21T03:06:49.649Z,10.6
2018-09-21T03:08:49.670Z,10.9
2018-09-21T03:10:49.754Z,11.1
2018-09-21T03:12:49.784Z,10.9
2018-09-21T03:14:49.828Z,10.9
2018-09-21T03:16:49.996Z,11.4
2018-09-21T03:18:49.972Z,11.5
2018-09-21T03:20:49.906Z,11.1
2018-09-21T03:22:49.880Z,11.1
2018-09-21T03:24:49.845Z,11.2
2018-09-21T03:26:50.086Z,11.0
2018-09-21T03:28:50.003Z,10.7
2018-09-21T03:30:49.978Z,11.2
2018-09-21T03:32:49.979Z,10.9
2018-09-21T03:34:50.392Z,10.9
2018-09-21T03:36:49.987Z,10.8
2018-09-21T03:38:50.127Z,10.3
2018-09-21T03:40:50.138Z,10.8
2018-09-21T03:42:50.198Z,10.8
2018-09-21T03:44:50.165Z,10.3
2018-09-21T03:46:50.284Z,10.2
2018-09-21T03:48:50.420Z,10.9
2018-09-21T03:50:50.383Z,11.1
2018-09-21T03:52:50.536Z,11.1
2018-09-21T03:54:49.594Z,11.0
2018-09-21T03:56:49.811Z,10.8
2018-09-21T03:58:49.762Z,11.4
2018-09-21T04:00:49.775Z,10.8
2018-09-21T04:02:49.802Z,10.8
2018-09-21T04:04:50.085Z,10.9
2018-09-21T04:06:50.206Z,10.9
2018-09-21T04:08:50.243Z,11.8
2018-09-21T04:10:50.226Z,11.4
2018-09-21T04:12:50.196Z,11.4
2018-09-21T04:14:50.302Z,11.3
2018-09-21T04:16:50.490Z,11.0
2018-09-21T04:18:50.497Z,11.4
2018-09-21T04:20:49.578Z,11.4
2018-09-21T04:22:49.568Z,11.0
2018-09-21T04:24:49.568Z,11.7
2018-09-21T04:26:50.340Z,11.7
2018-09-21T04:28:50.294Z,11.7
2018-09-21T04:30:50.386Z,11.5
2018-09-21T04:32:50.430Z,11.4
2018-09-21T04:34:49.810Z,12.4
2018-09-21T04:36:50.007Z,12.5
2018-09-21T04:38:50.116Z,12.2
2018-09-21T04:40:50.115Z,12.2
2018-09-21T04:42:50.102Z,30.3
2018-09-21T04:44:50.119Z,12.0
2018-09-21T04:46:50.295Z,11.8
2018-09-21T04:48:50.299Z,12.2
2018-09-21T04:50:50.252Z,12.2
2018-09-21T04:52:50.212Z,12.3
2018-09-21T04:54:50.202Z,12.3
2018-09-21T04:56:50.489Z,13.2
2018-09-21T04:58:49.558Z,12.9
2018-09-21T05:00:49.654Z,12.9
2018-09-21T05:02:49.703Z,12.7
2018-09-21T05:04:50.250Z,12.5
2018-09-21T05:06:49.659Z,13.3
2018-09-21T05:08:49.783Z,13.3
2018-09-21T05:10:49.784Z,12.7
2018-09-21T05:12:49.824Z,12.9
2018-09-21T05:14:49.857Z,12.9
2018-09-21T05:16:50.032Z,13.8
2018-09-21T05:18:49.928Z,16.3
2018-09-21T05:20:49.933Z,16.3
2018-09-21T05:22:49.884Z,18.8
2018-09-21T05:24:49.884Z,15.7
2018-09-21T05:26:49.991Z,17.3
2018-09-21T05:28:49.982Z,15.6
2018-09-21T05:30:49.925Z,15.6
2018-09-21T05:32:49.920Z,14.6
2018-09-21T05:34:50.440Z,14.3
2018-09-21T05:36:49.978Z,14.3
2018-09-21T05:38:50.028Z,14.3
2018-09-21T05:40:49.974Z,14.4
2018-09-21T05:42:49.973Z,13.6
2018-09-21T05:44:50.006Z,13.9
2018-09-21T05:46:50.224Z,14.0
2018-09-21T05:48:50.202Z,14.0
2018-09-21T05:50:50.189Z,14.9
2018-09-21T05:52:50.163Z,14.4
2018-09-21T05:54:50.191Z,13.8
2018-09-21T05:56:50.329Z,13.8
2018-09-21T05:58:50.360Z,13.8
2018-09-21T06:00:50.364Z,13.7
2018-09-21T06:02:50.461Z,13.1
2018-09-21T06:04:50.092Z,13.6
2018-09-21T06:06:50.174Z,13.6
2018-09-21T06:08:50.131Z,13.7
2018-09-21T06:10:50.304Z,13.5
2018-09-21T06:12:50.324Z,13.5
2018-09-21T06:14:50.354Z,13.5
2018-09-21T06:16:49.709Z,12.6
2018-09-21T06:18:49.687Z,15.3
2018-09-21T06:20:49.809Z,12.4
2018-09-21T06:22:49.903Z,12.5
2018-09-21T06:24:50.079Z,12.3
2018-09-21T06:26:50.221Z,12.3
2018-09-21T06:28:50.162Z,11.7
2018-09-21T06:30:50.171Z,11.9
2018-09-21T06:32:50.194Z,11.9
2018-09-21T06:34:49.662Z,13.0
2018-09-21T06:36:49.890Z,13.0
2018-09-21T06:38:49.855Z,12.5
2018-09-21T06:40:49.862Z,14.1
2018-09-21T06:42:49.874Z,12.7
2018-09-21T06:44:49.864Z,12.7
2018-09-21T06:46:50.011Z,12.7
2018-09-21T06:48:49.989Z,12.5
2018-09-21T06:50:50.023Z,12.7
2018-09-21T06:52:50.023Z,12.0
2018-09-21T06:54:49.957Z,12.4
2018-09-21T06:56:50.101Z,12.4
2018-09-21T06:58:50.106Z,12.7
2018-09-21T07:00:50.125Z,12.7
2018-09-21T07:02:50.133Z,13.3
2018-09-21T07:04:50.432Z,13.3
2018-09-21T07:06:49.638Z,14.2
2018-09-21T07:08:49.567Z,14.2
2018-09-21T07:10:49.626Z,13.0
2018-09-21T07:12:49.679Z,12.6
2018-09-21T07:14:49.686Z,12.6
2018-09-21T07:16:49.864Z,12.6
2018-09-21T07:18:49.896Z,12.2
2018-09-21T07:20:49.993Z,11.5
2018-09-21T07:22:50.021Z,11.5
2018-09-21T07:24:50.097Z,11.8
2018-09-21T07:26:50.244Z,11.2
2018-09-21T07:28:50.284Z,11.1
2018-09-21T07:30:50.290Z,10.5
2018-09-21T07:32:50.414Z,10.5
2018-09-21T07:34:49.954Z,10.5
2018-09-21T07:36:50.056Z,10.0
2018-09-21T07:38:50.000Z,10.3
2018-09-21T07:40:50.231Z,10.3
2018-09-21T07:42:50.286Z,9.3
2018-09-21T07:44:50.475Z,9.3
2018-09-21T07:46:49.725Z,8.9
2018-09-21T07:48:49.975Z,9.1
2018-09-21T07:50:50.224Z,9.2
2018-09-21T07:52:50.173Z,8.6
2018-09-21T07:54:50.136Z,8.6
2018-09-21T07:56:50.551Z,8.5
2018-09-21T07:58:49.722Z,9.6
2018-09-21T08:00:49.791Z,8.0
2018-09-21T08:02:49.824Z,8.0
2018-09-21T08:04:49.912Z,9.0
2018-09-21T08:06:50.159Z,8.5
2018-09-21T08:08:50.207Z,8.8
2018-09-21T08:10:50.177Z,8.8
2018-09-21T08:12:50.378Z,8.8
2018-09-21T08:14:49.841Z,8.6
2018-09-21T08:16:49.972Z,8.0
2018-09-21T08:18:50.052Z,8.3
2018-09-21T08:20:50.113Z,8.1
2018-09-21T08:22:50.264Z,8.1
2018-09-21T08:24:50.314Z,7.8
2018-09-21T08:26:50.476Z,7.7
2018-09-21T08:28:50.433Z,7.7
2018-09-21T08:30:50.521Z,7.6
2018-09-21T08:32:49.548Z,7.8
2018-09-21T08:34:49.943Z,7.7
2018-09-21T08:36:50.313Z,7.5
2018-09-21T08:38:50.368Z,8.0
2018-09-21T08:40:50.379Z,8.0
2018-09-21T08:42:50.435Z,8.0
2018-09-21T08:44:49.561Z,7.2
2018-09-21T08:46:49.765Z,6.8
2018-09-21T08:48:49.787Z,6.8
2018-09-21T08:50:49.767Z,6.6
2018-09-21T08:52:49.802Z,6.6
2018-09-21T08:54:49.854Z,6.6
2018-09-21T08:56:50.502Z,7.5
2018-09-21T08:58:49.528Z,6.9
2018-09-21T09:00:49.598Z,6.9
2018-09-21T09:02:49.726Z,7.0
2018-09-21T09:04:50.120Z,7.0
2018-09-21T09:06:50.265Z,6.2
2018-09-21T09:08:50.463Z,6.2
2018-09-21T09:10:50.413Z,6.2
2018-09-21T09:12:50.443Z,6.5
2018-09-21T09:14:50.449Z,6.9
2018-09-21T09:16:49.803Z,6.4
2018-09-21T09:18:49.820Z,6.4
2018-09-21T09:20:49.812Z,6.7
2018-09-21T09:22:49.837Z,6.1
2018-09-21T09:24:49.941Z,5.9
2018-09-21T09:26:50.307Z,6.7
2018-09-21T09:28:50.326Z,6.7
2018-09-21T09:30:50.283Z,6.2
2018-09-21T09:32:50.375Z,6.0
2018-09-21T09:34:49.822Z,6.2
2018-09-21T09:36:50.061Z,6.2
2018-09-21T09:38:50.388Z,6.3
2018-09-21T09:40:50.444Z,6.3
2018-09-21T09:42:50.525Z,6.7
2018-09-21T09:44:49.751Z,5.6
2018-09-21T09:46:50.010Z,5.8
2018-09-21T09:48:50.765Z,5.8
2018-09-21T09:50:50.369Z,5.6
2018-09-21T09:52:50.369Z,5.5
2018-09-21T09:54:50.560Z,5.4
2018-09-21T09:56:49.553Z,5.3
2018-09-21T09:58:49.537Z,5.3
2018-09-21T10:00:49.645Z,5.4
2018-09-21T10:02:49.651Z,5.4
2018-09-21T10:04:50.104Z,5.4
2018-09-21T10:06:50.309Z,5.3
2018-09-21T10:08:50.372Z,5.3
2018-09-21T10:10:50.433Z,4.8
2018-09-21T10:12:49.526Z,4.6
2018-09-21T10:14:49.634Z,4.6
2018-09-21T10:16:49.938Z,4.7
2018-09-21T10:18:49.897Z,4.7
2018-09-21T10:20:50.333Z,4.9
2018-09-21T10:22:50.363Z,4.9
2018-09-21T10:24:50.339Z,4.8
2018-09-21T10:26:49.661Z,4.3
2018-09-21T10:28:50.365Z,4.3
2018-09-21T10:30:50.095Z,4.6
2018-09-21T10:32:50.152Z,4.8
2018-09-21T10:34:50.442Z,5.0
2018-09-21T10:36:49.839Z,5.9
2018-09-21T10:38:49.960Z,5.9
2018-09-21T10:40:50.139Z,4.8
2018-09-21T10:42:50.476Z,4.7
2018-09-21T10:44:49.887Z,4.7
2018-09-21T10:46:49.984Z,4.8
2018-09-21T10:48:50.094Z,4.5
2018-09-21T10:50:50.056Z,4.5
2018-09-21T10:52:50.260Z,4.5
2018-09-21T10:54:49.738Z,4.5
2018-09-21T10:56:49.928Z,4.8
2018-09-21T10:58:49.896Z,4.6
2018-09-21T11:00:49.888Z,5.0
2018-09-21T11:02:49.893Z,6.4
2018-09-21T11:04:50.424Z,4.7
2018-09-21T11:06:49.539Z,4.7
2018-09-21T11:08:49.530Z,5.0
2018-09-21T11:10:49.553Z,5.1
2018-09-21T11:12:49.546Z,5.0
2018-09-21T11:14:49.616Z,5.0
2018-09-21T11:16:49.788Z,5.2
2018-09-21T11:18:49.842Z,4.9
2018-09-21T11:20:50.000Z,5.1
2018-09-21T11:22:50.032Z,4.9
2018-09-21T11:24:50.042Z,4.9
2018-09-21T11:26:50.243Z,4.8
2018-09-21T11:28:50.285Z,4.7
2018-09-21T11:30:50.207Z,5.1
2018-09-21T11:32:50.172Z,5.0
2018-09-21T11:34:50.570Z,5.0
2018-09-21T11:36:49.862Z,5.0
2018-09-21T11:38:49.882Z,5.1
2018-09-21T11:40:50.103Z,6.8
2018-09-21T11:42:50.002Z,6.8
2018-09-21T11:44:49.948Z,4.6
2018-09-21T11:46:50.382Z,4.5
2018-09-21T11:48:49.639Z,4.4
2018-09-21T11:50:50.292Z,5.2
2018-09-21T11:52:50.220Z,5.2
2018-09-21T11:54:50.372Z,5.1
2018-09-21T11:56:49.562Z,7.2
2018-09-21T11:58:49.663Z,4.5
2018-09-21T12:00:49.746Z,4.5
2018-09-21T12:02:49.819Z,5.1
2018-09-21T12:04:50.417Z,4.9
2018-09-21T12:06:49.595Z,5.0
2018-09-21T12:08:50.249Z,4.8
2018-09-21T12:10:50.254Z,4.8
2018-09-21T12:12:50.271Z,4.6
2018-09-21T12:14:50.375Z,4.6
2018-09-21T12:16:49.603Z,5.1
2018-09-21T12:18:49.911Z,4.8
2018-09-21T12:20:49.832Z,5.1
2018-09-21T12:22:50.063Z,4.5
2018-09-21T12:24:50.443Z,4.5
2018-09-21T12:26:49.628Z,4.7
2018-09-21T12:28:49.657Z,4.9
2018-09-21T12:30:49.784Z,4.5
2018-09-21T12:32:50.066Z,4.5
2018-09-21T12:34:50.365Z,4.9
2018-09-21T12:36:50.533Z,5.0
2018-09-21T12:38:49.642Z,5.2
2018-09-21T12:40:49.783Z,5.2
2018-09-21T12:42:49.789Z,5.2
2018-09-21T12:44:49.791Z,4.9
2018-09-21T12:46:50.418Z,5.0
2018-09-21T12:48:49.712Z,4.9
2018-09-21T12:50:49.912Z,4.9
2018-09-21T12:52:50.192Z,5.1
2018-09-21T12:54:50.196Z,5.2
2018-09-21T12:56:49.559Z,5.0
2018-09-21T12:58:49.923Z,5.8
2018-09-21T13:00:50.509Z,5.8
2018-09-21T13:02:49.988Z,4.9
2018-09-21T13:04:50.488Z,5.3
2018-09-21T13:06:49.797Z,5.0
2018-09-21T13:08:50.144Z,5.4
2018-09-21T13:10:50.451Z,5.4
2018-09-21T13:12:50.386Z,5.2
2018-09-21T13:14:50.428Z,5.3
2018-09-21T13:16:49.559Z,5.0
2018-09-21T13:18:50.219Z,5.5
2018-09-21T13:20:50.363Z,5.5
2018-09-21T13:22:50.357Z,5.5
2018-09-21T13:24:49.840Z,5.3
2018-09-21T13:26:49.969Z,5.3
2018-09-21T13:28:50.392Z,5.2
2018-09-21T13:30:50.433Z,5.2
2018-09-21T13:32:50.424Z,4.8
2018-09-21T13:34:50.392Z,5.4
2018-09-21T13:36:49.618Z,5.4
2018-09-21T13:38:49.727Z,5.0
2018-09-21T13:40:49.678Z,5.2
2018-09-21T13:42:49.949Z,5.3
2018-09-21T13:44:49.982Z,5.1
2018-09-21T13:46:50.186Z,5.6
2018-09-21T13:48:50.297Z,5.7
2018-09-21T13:50:50.284Z,5.7
2018-09-21T13:52:50.365Z,6.0
2018-09-21T13:54:50.266Z,5.8
2018-09-21T13:56:50.345Z,6.4
2018-09-21T13:58:50.427Z,6.4
2018-09-21T14:00:50.461Z,5.7
2018-09-21T14:02:50.409Z,5.5
2018-09-21T14:04:49.730Z,6.1
2018-09-21T14:06:49.898Z,6.1
2018-09-21T14:08:49.899Z,5.8
2018-09-21T14:10:49.823Z,6.1
2018-09-21T14:12:49.828Z,5.7
2018-09-21T14:14:49.747Z,6.0
2018-09-21T14:16:49.745Z,6.0
2018-09-21T14:18:49.702Z,6.4
2018-09-21T14:20:49.894Z,5.8
2018-09-21T14:22:49.869Z,6.0
2018-09-21T14:24:49.860Z,6.3
2018-09-21T14:26:49.971Z,6.3
2018-09-21T14:28:49.991Z,6.0
2018-09-21T14:30:50.124Z,6.1
2018-09-21T14:32:50.120Z,6.1
2018-09-21T14:34:50.347Z,6.2
2018-09-21T14:36:49.724Z,6.2
2018-09-21T14:38:49.692Z,6.2
2018-09-21T14:40:49.680Z,6.2
2018-09-21T14:42:49.669Z,6.4
2018-09-21T14:44:49.682Z,6.2
2018-09-21T14:46:49.988Z,6.2
2018-09-21T14:48:49.962Z,6.2
2018-09-21T14:50:49.973Z,6.6
2018-09-21T14:52:49.981Z,6.4
2018-09-21T14:54:50.032Z,6.4
2018-09-21T14:56:50.210Z,6.4
2018-09-21T14:58:50.229Z,6.4
2018-09-21T15:00:50.206Z,6.2
2018-09-21T15:02:50.243Z,6.4
2018-09-21T15:04:50.441Z,6.4
2018-09-21T15:06:49.834Z,6.7
2018-09-21T15:08:49.912Z,6.5
2018-09-21T15:10:49.861Z,6.3
2018-09-21T15:12:49.835Z,7.6
2018-09-21T15:14:49.847Z,7.0
2018-09-21T15:16:50.036Z,7.0
2018-09-21T15:18:49.982Z,7.1
2018-09-21T15:20:49.945Z,7.4
2018-09-21T15:22:49.959Z,7.4
2018-09-21T15:24:49.861Z,7.4
2018-09-21T15:26:49.977Z,7.7
2018-09-21T15:28:50.030Z,8.1
2018-09-21T15:30:49.925Z,7.8
2018-09-21T15:32:50.023Z,7.7
2018-09-21T15:34:50.382Z,8.0
2018-09-21T15:36:49.528Z,8.0
2018-09-21T15:38:49.577Z,7.5
2018-09-21T15:40:49.576Z,7.9
2018-09-21T15:42:49.596Z,7.5
2018-09-21T15:44:49.610Z,7.5
2018-09-21T15:46:49.920Z,7.4
2018-09-21T15:48:49.917Z,7.5
2018-09-21T15:50:49.888Z,7.5
2018-09-21T15:52:50.070Z,7.3
2018-09-21T15:54:50.349Z,7.3
2018-09-21T15:56:49.627Z,7.4
2018-09-21T15:58:49.874Z,7.7
2018-09-21T16:00:50.217Z,11.3
2018-09-21T16:02:50.270Z,7.7
2018-09-21T16:04:49.552Z,7.7
2018-09-21T16:06:49.772Z,7.6
2018-09-21T16:08:49.962Z,7.6
2018-09-21T16:10:49.870Z,8.3
2018-09-21T16:12:49.989Z,8.3
2018-09-21T16:14:50.262Z,10.2
2018-09-21T16:16:50.507Z,7.9
2018-09-21T16:18:49.611Z,7.9
2018-09-21T16:20:49.659Z,7.9
2018-09-21T16:22:49.686Z,7.9
2018-09-21T16:24:49.710Z,7.9
2018-09-21T16:26:49.928Z,2.6
2018-09-21T16:28:49.846Z,1.6
2018-09-21T16:30:49.817Z,1.3
2018-09-21T16:32:49.844Z,1.3
2018-09-21T16:34:50.309Z,1.3
2018-09-21T16:36:50.505Z,1.2
2018-09-21T16:38:49.563Z,1.1
2018-09-21T16:40:49.525Z,1.1
2018-09-21T16:42:49.538Z,1.2
2018-09-21T16:44:49.743Z,1.1
2018-09-21T16:46:50.374Z,1.1
2018-09-21T16:48:50.364Z,1.2
2018-09-21T16:50:50.358Z,0.9
2018-09-21T16:52:49.574Z,0.9
2018-09-21T16:54:49.540Z,0.9
2018-09-21T16:56:49.706Z,0.8
2018-09-21T16:58:50.063Z,0.8
2018-09-21T17:00:50.442Z,0.8
2018-09-21T17:02:50.443Z,0.9
2018-09-21T17:04:50.163Z,0.9
2018-09-21T17:06:49.724Z,0.9
2018-09-21T17:08:49.704Z,1.0
2018-09-21T17:10:49.744Z,1.0
2018-09-21T17:12:49.740Z,1.0
2018-09-21T17:14:49.830Z,0.9
2018-09-21T17:16:49.933Z,1.1
2018-09-21T17:18:49.965Z,1.1
2018-09-21T17:20:49.934Z,1.1
2018-09-21T17:22:50.029Z,1.1
2018-09-21T17:24:49.984Z,1.0
2018-09-21T17:26:50.135Z,0.9
2018-09-21T17:28:50.083Z,1.1
2018-09-21T17:30:50.117Z,1.1
2018-09-21T17:32:50.108Z,1.2
2018-09-21T17:34:50.333Z,1.1
2018-09-21T17:36:50.598Z,1.3
2018-09-21T17:38:49.752Z,1.3
2018-09-21T17:40:49.675Z,1.3
2018-09-21T17:42:49.676Z,1.5
2018-09-21T17:44:49.676Z,1.2
2018-09-21T17:46:49.944Z,1.2
2018-09-21T17:48:49.975Z,1.2
2018-09-21T17:50:49.991Z,1.4
2018-09-21T17:52:49.961Z,1.1
2018-09-21T17:54:49.936Z,1.4
2018-09-21T17:56:50.101Z,1.5
2018-09-21T17:58:50.047Z,1.5
2018-09-21T18:00:50.261Z,1.7
2018-09-21T18:02:50.421Z,1.5
2018-09-21T18:04:49.868Z,1.5
2018-09-21T18:06:50.025Z,1.5
2018-09-21T18:08:50.147Z,1.3
2018-09-21T18:10:50.120Z,1.3
2018-09-21T18:12:50.161Z,1.6
2018-09-21T18:14:50.183Z,1.6
2018-09-21T18:16:50.330Z,1.8
2018-09-21T18:18:50.278Z,1.8
2018-09-21T18:20:50.302Z,1.8
2018-09-21T18:22:50.374Z,1.7
2018-09-21T18:24:49.590Z,1.8
2018-09-21T18:26:49.755Z,1.6
2018-09-21T18:28:49.765Z,1.6
2018-09-21T18:30:49.715Z,1.7
2018-09-21T18:32:49.830Z,1.7
2018-09-21T18:34:50.130Z,1.8
2018-09-21T18:36:50.297Z,1.8
2018-09-21T18:38:50.247Z,1.7
2018-09-21T18:40:50.272Z,1.8
2018-09-21T18:42:50.228Z,1.5
2018-09-21T18:44:50.641Z,1.5
2018-09-21T18:46:50.302Z,1.9
2018-09-21T18:48:50.474Z,2.0
2018-09-21T18:50:49.666Z,1.9
2018-09-21T18:52:49.991Z,1.5
2018-09-21T18:54:49.951Z,2.0
2018-09-21T18:56:50.225Z,2.0
2018-09-21T18:58:50.178Z,1.8
2018-09-21T19:00:50.190Z,1.8
2018-09-21T19:02:50.175Z,2.0
2018-09-21T19:04:49.537Z,2.1
2018-09-21T19:06:49.669Z,2.1
2018-09-21T19:08:49.721Z,2.0
2018-09-21T19:10:49.698Z,1.5
2018-09-21T19:12:49.813Z,1.5
2018-09-21T19:14:49.857Z,1.9
2018-09-21T19:16:50.058Z,1.9
2018-09-21T19:18:50.093Z,1.8
2018-09-21T19:20:50.256Z,1.8
2018-09-21T19:22:50.260Z,2.0
2018-09-21T19:24:50.346Z,1.7
2018-09-21T19:26:49.540Z,1.7
2018-09-21T19:28:49.600Z,1.9
2018-09-21T19:30:49.584Z,2.0
2018-09-21T19:32:49.738Z,1.9
2018-09-21T19:34:50.108Z,2.1
2018-09-21T19:36:50.214Z,2.1
2018-09-21T19:38:50.254Z,2.1
2018-09-21T19:40:50.208Z,1.8
2018-09-21T19:42:50.736Z,2.0
2018-09-21T19:44:50.515Z,3.6
2018-09-21T19:46:50.396Z,3.6
2018-09-21T19:48:49.755Z,2.0
2018-09-21T19:50:49.770Z,1.9
2018-09-21T19:52:49.886Z,1.9
2018-09-21T19:54:50.116Z,2.0
2018-09-21T19:56:49.873Z,2.0
2018-09-21T19:58:49.799Z,2.1
2018-09-21T20:00:49.770Z,1.8
2018-09-21T20:02:49.730Z,2.3
2018-09-21T20:04:50.233Z,2.3
2018-09-21T20:06:49.717Z,1.9
2018-09-21T20:08:49.682Z,1.8
2018-09-21T20:10:49.799Z,2.0
2018-09-21T20:12:49.822Z,2.2
2018-09-21T20:14:49.875Z,2.2
2018-09-21T20:16:50.033Z,1.8
2018-09-21T20:18:50.007Z,2.2
2018-09-21T20:20:49.953Z,2.0
2018-09-21T20:22:49.930Z,2.0
2018-09-21T20:24:49.922Z,2.5
2018-09-21T20:26:50.094Z,2.0
2018-09-21T20:28:50.065Z,2.1
2018-09-21T20:30:50.217Z,1.9
2018-09-21T20:32:49.801Z,1.9
2018-09-21T20:34:49.641Z,2.2
2018-09-21T20:36:49.769Z,2.0
2018-09-21T20:38:49.780Z,2.2
2018-09-21T20:40:49.821Z,2.2
2018-09-21T20:42:50.115Z,2.2
2018-09-21T20:44:50.485Z,1.9
2018-09-21T20:46:49.938Z,2.0
2018-09-21T20:48:49.905Z,2.0
2018-09-21T20:50:49.882Z,2.3
2018-09-21T20:52:49.836Z,2.4
2018-09-21T20:54:49.819Z,2.2
2018-09-21T20:56:50.008Z,2.2
2018-09-21T20:58:50.093Z,2.3
2018-09-21T21:00:50.342Z,2.2
2018-09-21T21:02:50.368Z,2.2
2018-09-21T21:04:49.899Z,2.2
2018-09-21T21:06:50.106Z,3.4
2018-09-21T21:08:50.132Z,2.7
2018-09-21T21:10:50.216Z,2.7
2018-09-21T21:12:50.207Z,2.6
2018-09-21T21:14:50.147Z,2.0
2018-09-21T21:16:50.328Z,2.5
2018-09-21T21:18:50.366Z,2.5
2018-09-21T21:20:50.374Z,2.7
2018-09-21T21:22:50.342Z,2.8
2018-09-21T21:24:50.297Z,2.7
2018-09-21T21:26:50.439Z,2.9
2018-09-21T21:28:49.612Z,2.9
2018-09-21T21:30:49.580Z,3.1
2018-09-21T21:32:49.687Z,3.2
2018-09-21T21:34:50.105Z,3.0
2018-09-21T21:36:50.281Z,3.3
2018-09-21T21:38:50.268Z,3.3
2018-09-21T21:40:50.261Z,3.3
2018-09-21T21:42:50.258Z,3.3
2018-09-21T21:44:50.257Z,3.3
2018-09-21T21:46:49.608Z,4.2
2018-09-21T21:48:49.601Z,3.4
2018-09-21T21:50:49.584Z,3.4
2018-09-21T21:52:49.681Z,3.7
2018-09-21T21:54:49.640Z,3.8
2018-09-21T21:56:49.988Z,4.3
2018-09-21T21:58:50.041Z,3.9
2018-09-21T22:00:50.038Z,3.9
2018-09-21T22:02:50.041Z,4.2
2018-09-21T22:04:50.408Z,4.2
2018-09-21T22:06:49.552Z,4.1
2018-09-21T22:08:49.561Z,4.1
2018-09-21T22:10:49.697Z,4.3
2018-09-21T22:12:49.726Z,4.1
2018-09-21T22:14:49.692Z,4.3
2018-09-21T22:16:50.049Z,4.6
2018-09-21T22:18:50.013Z,4.6
2018-09-21T22:20:50.020Z,4.7
2018-09-21T22:22:49.978Z,4.9
2018-09-21T22:24:50.018Z,5.0
2018-09-21T22:26:50.198Z,5.0
2018-09-21T22:28:50.172Z,5.0
2018-09-21T22:30:50.178Z,5.2
2018-09-21T22:32:50.201Z,5.6
2018-09-21T22:34:50.459Z,5.2
2018-09-21T22:36:49.747Z,5.4
2018-09-21T22:38:49.667Z,5.4
2018-09-21T22:40:49.697Z,5.4
2018-09-21T22:42:49.718Z,5.4
2018-09-21T22:44:49.914Z,5.9
2018-09-21T22:46:49.571Z,5.9
2018-09-21T22:48:49.530Z,5.7
2018-09-21T22:50:49.595Z,5.5
2018-09-21T22:52:49.742Z,6.2
2018-09-21T22:54:49.768Z,5.3
2018-09-21T22:56:49.975Z,5.3
2018-09-21T22:58:49.929Z,6.1
2018-09-21T23:00:49.911Z,5.5
2018-09-21T23:02:49.951Z,5.8
2018-09-21T23:04:50.252Z,5.8
2018-09-21T23:06:50.502Z,5.9
2018-09-21T23:08:50.474Z,6.3
2018-09-21T23:10:49.554Z,5.6
2018-09-21T23:12:49.716Z,5.7
2018-09-21T23:14:49.809Z,5.7
2018-09-21T23:16:49.963Z,5.7
2018-09-21T23:18:49.985Z,5.4
2018-09-21T23:20:49.969Z,5.7
2018-09-21T23:22:50.001Z,5.4
2018-09-21T23:24:49.913Z,5.4
2018-09-21T23:26:50.026Z,4.7
2018-09-21T23:28:49.999Z,3.6
2018-09-21T23:30:49.959Z,3.9
2018-09-21T23:32:49.981Z,3.8
2018-09-21T23:34:49.539Z,3.8
2018-09-21T23:36:49.805Z,3.9
2018-09-21T23:38:49.801Z,3.7
2018-09-21T23:40:49.777Z,3.3
2018-09-21T23:42:49.823Z,3.3
2018-09-21T23:44:49.928Z,3.3
2018-09-21T23:46:50.141Z,3.3
2018-09-21T23:48:50.144Z,3.1
2018-09-21T23:50:50.211Z,2.9
2018-09-21T23:52:50.262Z,3.1
2018-09-21T23:54:50.257Z,3.1
2018-09-21T23:56:50.527Z,2.7
2018-09-21T23:58:49.531Z,2.5
